Time;durP1;ratioP1;P1;durP2;ratioP2;P2;SDS_P1;SDS_P2;PMS_P1;PMS_P2;Temp;Humidity;BMP_temperature;BMP_pressure;BME280_temperature;BME280_humidity;BME280_pressure;Samples;Min_cycle;Max_cycle;Signal;HPM_P1;HPM_P2
2021/04/17 00:01:21;;;;;;;8.37;7.50;;;8.00;94.90;;;;;;5016625;28;20175;-72
2021/04/17 00:03:47;;;;;;;9.13;7.70;;;8.00;94.90;;;;;;5014882;28;20207;-73
2021/04/17 00:06:13;;;;;;;13.30;8.27;;;7.90;95.10;;;;;;5026204;28;20472;-73
2021/04/17 00:08:38;;;;;;;8.57;7.67;;;7.90;95.20;;;;;;5033034;28;20407;-72
2021/04/17 00:11:04;;;;;;;7.90;6.27;;;7.90;95.30;;;;;;5029690;28;20956;-72
2021/04/17 00:13:30;;;;;;;8.73;7.60;;;8.00;95.30;;;;;;5016225;28;20276;-72
2021/04/17 00:15:56;;;;;;;8.40;7.60;;;8.00;95.10;;;;;;5016075;28;20259;-73
2021/04/17 00:18:21;;;;;;;8.57;7.67;;;8.10;94.70;;;;;;5015378;28;20219;-73
2021/04/17 00:20:48;;;;;;;8.20;7.40;;;8.10;94.40;;;;;;5015891;28;20175;-73
2021/04/17 00:23:15;;;;;;;7.43;6.73;;;8.20;94.00;;;;;;5014771;28;20168;-72
2021/04/17 00:25:40;;;;;;;7.43;6.50;;;8.10;93.70;;;;;;5015229;28;20427;-72
2021/04/17 00:28:06;;;;;;;7.80;7.00;;;8.20;93.40;;;;;;5015346;28;20476;-72
2021/04/17 00:30:31;;;;;;;7.90;7.10;;;8.20;93.30;;;;;;5014086;28;20569;-73
2021/04/17 00:32:57;;;;;;;8.63;6.83;;;8.20;93.20;;;;;;5015657;28;20207;-72
2021/04/17 00:35:22;;;;;;;8.17;7.27;;;8.20;93.10;;;;;;5015184;28;20186;-72
2021/04/17 00:37:48;;;;;;;7.70;7.00;;;8.10;93.10;;;;;;5014577;28;20231;-72
2021/04/17 00:40:14;;;;;;;9.63;7.60;;;8.10;93.00;;;;;;5015193;28;20253;-73
2021/04/17 00:42:39;;;;;;;7.73;6.97;;;8.20;93.00;;;;;;5015007;28;20513;-72
2021/04/17 00:45:06;;;;;;;7.67;6.77;;;8.20;93.00;;;;;;5015070;28;20600;-73
2021/04/17 00:47:32;;;;;;;8.97;7.53;;;8.20;92.90;;;;;;5015708;28;20196;-73
2021/04/17 00:49:57;;;;;;;8.30;6.60;;;8.20;92.80;;;;;;5014148;28;20509;-73
2021/04/17 00:52:23;;;;;;;8.40;7.23;;;8.20;92.50;;;;;;5014431;28;20230;-73
2021/04/17 00:54:49;;;;;;;7.53;6.83;;;8.20;92.30;;;;;;5014931;28;20215;-73
2021/04/17 00:57:14;;;;;;;8.07;7.27;;;8.20;92.20;;;;;;5014740;28;20265;-73
2021/04/17 00:59:40;;;;;;;8.03;6.57;;;8.20;92.20;;;;;;5014386;28;20536;-72
2021/04/17 01:02:05;;;;;;;8.30;7.50;;;8.10;92.30;;;;;;5013572;28;20901;-73
2021/04/17 01:04:34;;;;;;;7.97;7.27;;;8.10;92.30;;;;;;5015226;28;20182;-73
2021/04/17 01:07:14;;;;;;;11.00;7.00;;;8.10;92.20;;;;;;5014961;28;20541;-73
2021/04/17 01:09:42;;;;;;;7.90;6.83;;;8.10;92.10;;;;;;5013168;28;20917;-72
2021/04/17 01:12:12;;;;;;;8.60;7.75;;;8.10;92.00;;;;;;5013671;28;20453;-73
2021/04/17 01:14:38;;;;;;;7.20;6.50;;;8.10;92.20;;;;;;5014684;28;20710;-73
2021/04/17 01:17:06;;;;;;;9.50;7.13;;;8.10;92.00;;;;;;5014575;28;20781;-73
2021/04/17 01:19:46;;;;;;;7.37;6.47;;;8.10;91.90;;;;;;5014764;28;20426;-73
2021/04/17 01:22:16;;;;;;;8.33;6.77;;;8.10;91.70;;;;;;5014889;28;20471;-73
2021/04/17 01:24:46;;;;;;;9.73;7.50;;;8.00;91.60;;;;;;5014778;28;20411;-73
2021/04/17 01:27:13;;;;;;;8.87;7.20;;;7.90;91.40;;;;;;5014585;28;20427;-73
2021/04/17 01:29:42;;;;;;;7.40;6.40;;;7.80;91.50;;;;;;5012790;28;20445;-73
2021/04/17 01:32:13;;;;;;;10.87;7.30;;;7.80;91.60;;;;;;5014853;28;20457;-73
2021/04/17 01:34:44;;;;;;;8.33;6.77;;;7.60;91.60;;;;;;5012736;28;20419;-73
2021/04/17 01:37:11;;;;;;;7.77;6.27;;;7.60;91.80;;;;;;5013623;28;20458;-72
2021/04/17 01:39:39;;;;;;;10.27;8.00;;;7.50;91.90;;;;;;5014322;28;20390;-72
2021/04/17 01:42:09;;;;;;;9.13;7.57;;;7.40;92.10;;;;;;5014029;28;20415;-73
2021/04/17 01:44:40;;;;;;;8.23;7.40;;;7.30;92.20;;;;;;5013697;28;20505;-72
2021/04/17 01:47:09;;;;;;;7.97;6.90;;;7.40;92.30;;;;;;5014585;28;20760;-72
2021/04/17 01:49:39;;;;;;;8.23;6.40;;;7.30;92.40;;;;;;5014174;28;20472;-73
2021/04/17 01:52:07;;;;;;;7.57;6.77;;;7.20;92.40;;;;;;5014123;28;20450;-73
2021/04/17 01:54:47;;;;;;;8.53;6.90;;;7.10;92.50;;;;;;5014180;28;20823;-73
2021/04/17 01:57:17;;;;;;;7.53;6.17;;;7.00;92.80;;;;;;5014059;28;20462;-73
2021/04/17 01:59:43;;;;;;;8.07;6.93;;;7.00;92.80;;;;;;5014090;28;20406;-73
2021/04/17 02:02:08;;;;;;;7.00;6.30;;;7.00;93.10;;;;;;5014193;28;20406;-73
2021/04/17 02:04:35;;;;;;;9.80;7.17;;;6.90;93.30;;;;;;5014045;28;20175;-72
2021/04/17 02:07:01;;;;;;;10.93;6.90;;;6.80;93.50;;;;;;5014022;28;20567;-73
2021/04/17 02:09:26;;;;;;;7.27;6.47;;;6.80;93.60;;;;;;5014997;28;20411;-72
2021/04/17 02:11:52;;;;;;;7.80;7.00;;;6.70;93.80;;;;;;5017577;28;20569;-73
2021/04/17 02:14:18;;;;;;;7.00;6.30;;;6.70;93.80;;;;;;5015310;28;20175;-73
2021/04/17 02:17:09;;;;;;;6.70;6.00;;;6.70;94.00;;;;;;5014190;28;20202;-73
2021/04/17 02:19:53;;;;;;;7.03;6.33;;;6.60;94.10;;;;;;5012404;28;20203;-73
2021/04/17 02:22:20;;;;;;;10.10;6.87;;;6.50;94.30;;;;;;5013556;28;20406;-73
2021/04/17 02:24:46;;;;;;;8.87;6.80;;;6.50;94.60;;;;;;5013766;28;20402;-72
2021/04/17 02:27:12;;;;;;;8.77;7.33;;;6.50;94.80;;;;;;5013672;28;20443;-71
2021/04/17 02:29:38;;;;;;;11.27;7.40;;;6.40;95.00;;;;;;5013714;28;20492;-72
2021/04/17 02:32:03;;;;;;;10.10;7.57;;;6.30;95.10;;;;;;5013161;28;20207;-72
2021/04/17 02:34:29;;;;;;;9.80;7.93;;;6.30;95.30;;;;;;5012788;28;20198;-72
2021/04/17 02:36:55;;;;;;;9.10;6.70;;;6.30;95.30;;;;;;5013040;28;20480;-72
2021/04/17 02:39:20;;;;;;;10.70;7.20;;;6.30;95.20;;;;;;5013406;28;20194;-72
2021/04/17 02:41:46;;;;;;;6.83;6.20;;;6.30;95.20;;;;;;5013514;28;20171;-72
2021/04/17 02:44:11;;;;;;;8.33;6.97;;;6.30;95.20;;;;;;5013468;28;20171;-72
2021/04/17 02:46:37;;;;;;;9.27;7.30;;;6.30;95.30;;;;;;5017251;28;20246;-72
2021/04/17 02:49:03;;;;;;;9.50;7.70;;;6.30;95.50;;;;;;5017369;28;20642;-72
2021/04/17 02:51:29;;;;;;;8.03;7.20;;;6.20;95.60;;;;;;5017474;28;20195;-72
2021/04/17 02:53:54;;;;;;;7.73;7.03;;;6.20;95.80;;;;;;5017027;28;20312;-72
2021/04/17 02:56:20;;;;;;;9.87;7.30;;;6.10;96.00;;;;;;5016946;28;20602;-72
2021/04/17 02:58:46;;;;;;;10.10;7.37;;;6.10;96.10;;;;;;5016784;28;20680;-73
2021/04/17 03:01:12;;;;;;;8.57;7.77;;;6.10;96.20;;;;;;5017553;28;20501;-72
2021/04/17 03:03:37;;;;;;;9.90;7.30;;;6.00;96.30;;;;;;5017114;28;20548;-73
2021/04/17 03:06:03;;;;;;;8.30;7.23;;;6.00;96.30;;;;;;5015796;28;20426;-72
2021/04/17 03:08:29;;;;;;;8.17;6.77;;;5.90;96.40;;;;;;5016919;28;20252;-72
2021/04/17 03:10:54;;;;;;;10.87;7.67;;;5.80;96.60;;;;;;5016626;28;20198;-72
2021/04/17 03:13:20;;;;;;;7.50;6.73;;;5.70;96.90;;;;;;5016881;28;20179;-73
2021/04/17 03:15:46;;;;;;;7.67;6.73;;;5.70;97.10;;;;;;5017376;28;20172;-71
2021/04/17 03:18:12;;;;;;;12.30;7.97;;;5.70;97.20;;;;;;5016881;28;20541;-73
2021/04/17 03:20:38;;;;;;;7.53;6.83;;;5.60;97.30;;;;;;5016584;28;20263;-71
2021/04/17 03:23:04;;;;;;;8.93;6.93;;;5.60;97.30;;;;;;5016736;28;20447;-71
2021/04/17 03:25:29;;;;;;;11.93;7.40;;;5.60;97.40;;;;;;5017689;28;20579;-71
2021/04/17 03:27:55;;;;;;;8.13;7.00;;;5.60;97.50;;;;;;5023782;28;20469;-71
2021/04/17 03:30:29;;;;;;;8.23;6.90;;;5.60;97.60;;;;;;5032163;28;20199;-72
2021/04/17 03:32:58;;;;;;;8.20;7.20;;;5.50;97.60;;;;;;5031062;28;20223;-72
2021/04/17 03:35:25;;;;;;;9.83;7.00;;;5.60;97.60;;;;;;5017172;28;20407;-72
2021/04/17 03:37:50;;;;;;;7.83;7.03;;;5.60;97.60;;;;;;5016592;28;20552;-71
2021/04/17 03:40:16;;;;;;;9.67;6.80;;;5.60;97.70;;;;;;5017180;28;20444;-72
2021/04/17 03:42:42;;;;;;;7.83;6.93;;;5.50;97.70;;;;;;5016237;28;20194;-71
2021/04/17 03:45:08;;;;;;;8.00;6.60;;;5.50;97.90;;;;;;5016527;28;20435;-72
2021/04/17 03:47:34;;;;;;;8.17;6.90;;;5.40;98.00;;;;;;5016562;28;20435;-72
2021/04/17 03:50:00;;;;;;;9.87;7.30;;;5.40;98.20;;;;;;5014777;28;20479;-72
2021/04/17 03:52:26;;;;;;;9.63;7.00;;;5.40;98.20;;;;;;5015945;28;20554;-71
2021/04/17 03:54:52;;;;;;;8.27;6.40;;;5.30;98.20;;;;;;5015900;28;20475;-72
2021/04/17 03:57:18;;;;;;;12.53;6.97;;;5.30;98.30;;;;;;5015071;28;20663;-72
2021/04/17 03:59:45;;;;;;;12.07;7.30;;;5.40;98.40;;;;;;5016430;28;20473;-72
2021/04/17 04:02:11;;;;;;;9.93;7.90;;;5.30;98.40;;;;;;5016181;28;20430;-72
2021/04/17 04:04:37;;;;;;;10.73;7.10;;;5.10;98.60;;;;;;5017120;28;20515;-72
2021/04/17 04:07:03;;;;;;;11.47;8.20;;;5.10;98.80;;;;;;5016036;28;20962;-72
2021/04/17 04:09:30;;;;;;;10.40;7.80;;;5.00;99.10;;;;;;5016051;28;20416;-72
2021/04/17 04:11:56;;;;;;;9.00;7.47;;;5.00;99.30;;;;;;5015951;28;20558;-72
2021/04/17 04:14:21;;;;;;;9.23;7.07;;;5.10;99.30;;;;;;5015324;28;20426;-72
2021/04/17 04:16:47;;;;;;;10.27;6.97;;;5.20;99.20;;;;;;5015819;28;20214;-72
2021/04/17 04:19:13;;;;;;;7.30;6.10;;;5.20;98.90;;;;;;5014568;28;20517;-72
2021/04/17 04:21:38;;;;;;;8.90;7.47;;;5.20;98.70;;;;;;5015778;28;20232;-72
2021/04/17 04:24:04;;;;;;;12.83;7.30;;;5.10;98.80;;;;;;5015187;28;20514;-72
2021/04/17 04:26:30;;;;;;;9.90;6.77;;;5.10;98.90;;;;;;5015632;28;20223;-72
2021/04/17 04:28:55;;;;;;;8.80;7.50;;;5.00;98.90;;;;;;5015886;28;20505;-72
2021/04/17 04:31:21;;;;;;;7.60;6.70;;;5.00;98.90;;;;;;5015307;28;20585;-72
2021/04/17 04:33:46;;;;;;;9.47;7.00;;;5.00;98.90;;;;;;5015825;28;20522;-73
2021/04/17 04:36:12;;;;;;;10.80;7.43;;;5.00;99.00;;;;;;5020156;28;20181;-73
2021/04/17 04:38:38;;;;;;;10.10;7.80;;;5.00;99.10;;;;;;5025426;28;20517;-72
2021/04/17 04:41:03;;;;;;;8.53;7.60;;;5.00;99.40;;;;;;5026178;28;20229;-72
2021/04/17 04:43:29;;;;;;;17.17;8.03;;;4.90;99.50;;;;;;5016320;28;20181;-72
2021/04/17 04:45:54;;;;;;;10.60;8.83;;;4.90;99.80;;;;;;5015732;28;20179;-73
2021/04/17 04:48:20;;;;;;;9.27;7.80;;;4.90;99.80;;;;;;5015098;28;20203;-73
2021/04/17 04:50:46;;;;;;;10.03;7.40;;;4.90;99.80;;;;;;5015110;28;20247;-73
2021/04/17 04:53:11;;;;;;;10.33;7.93;;;4.90;99.80;;;;;;5015180;28;20269;-72
2021/04/17 04:55:37;;;;;;;17.43;8.10;;;4.90;99.80;;;;;;5015437;28;20507;-73
2021/04/17 04:58:03;;;;;;;8.73;7.40;;;5.00;99.70;;;;;;5015175;28;20196;-73
2021/04/17 05:00:28;;;;;;;11.17;7.50;;;5.00;99.60;;;;;;5015756;28;20172;-72
2021/04/17 05:02:54;;;;;;;12.07;8.00;;;5.10;99.40;;;;;;5015003;28;20638;-72
2021/04/17 05:05:19;;;;;;;13.13;8.73;;;5.10;99.10;;;;;;5015342;28;20180;-72
2021/04/17 05:07:45;;;;;;;12.60;8.60;;;5.00;99.00;;;;;;5015139;28;20206;-73
2021/04/17 05:10:11;;;;;;;10.10;7.90;;;5.00;99.00;;;;;;5014474;28;20210;-73
2021/04/17 05:12:37;;;;;;;9.43;8.33;;;5.00;99.10;;;;;;5014674;28;20208;-73
2021/04/17 05:15:04;;;;;;;10.37;7.90;;;4.90;99.10;;;;;;5014919;28;20490;-73
2021/04/17 05:17:30;;;;;;;9.50;8.27;;;5.00;99.20;;;;;;5014541;28;20585;-72
2021/04/17 05:19:55;;;;;;;10.07;7.87;;;5.00;99.20;;;;;;5013722;28;20733;-73
2021/04/17 05:22:21;;;;;;;9.97;8.30;;;5.10;99.20;;;;;;5014959;28;20412;-72
2021/04/17 05:24:48;;;;;;;10.73;8.33;;;5.20;98.90;;;;;;5020309;28;20513;-72
2021/04/17 05:27:14;;;;;;;10.70;8.67;;;5.20;98.70;;;;;;5015085;28;20199;-74
2021/04/17 05:29:39;;;;;;;12.83;8.80;;;5.10;98.70;;;;;;5015383;28;20922;-73
2021/04/17 05:32:07;;;;;;;9.37;8.37;;;5.00;99.00;;;;;;5007874;28;20219;-73
2021/04/17 05:34:32;;;;;;;8.70;7.80;;;5.00;99.20;;;;;;5013381;28;20180;-72
2021/04/17 05:36:58;;;;;;;13.40;8.60;;;5.00;99.20;;;;;;5004881;28;20518;-72
2021/04/17 05:39:24;;;;;;;9.67;8.40;;;5.00;99.30;;;;;;5005306;28;20658;-72
2021/04/17 05:41:49;;;;;;;9.90;8.87;;;5.10;99.30;;;;;;4999369;28;20261;-72
2021/04/17 05:44:15;;;;;;;11.30;7.90;;;5.20;99.20;;;;;;5003491;28;20196;-73
2021/04/17 05:46:42;;;;;;;12.70;8.90;;;5.30;99.00;;;;;;5013120;28;20611;-73
2021/04/17 05:49:09;;;;;;;11.77;8.87;;;5.40;99.00;;;;;;5014800;28;20532;-73
2021/04/17 05:51:37;;;;;;;11.10;8.80;;;5.40;98.90;;;;;;5014186;28;20446;-73
2021/04/17 05:54:03;;;;;;;8.80;7.90;;;5.50;98.90;;;;;;4998582;28;20453;-73
2021/04/17 05:56:29;;;;;;;10.90;8.60;;;5.50;98.80;;;;;;5008511;28;20457;-73
2021/04/17 05:58:54;;;;;;;14.17;8.50;;;5.60;98.70;;;;;;5003955;28;20781;-72
2021/04/17 06:01:20;;;;;;;11.07;8.50;;;5.60;98.70;;;;;;4995575;28;20271;-73
2021/04/17 06:03:46;;;;;;;12.77;9.10;;;5.60;98.60;;;;;;5001463;28;20345;-71
2021/04/17 06:06:12;;;;;;;9.90;8.90;;;5.70;98.60;;;;;;5020749;28;20188;-73
2021/04/17 06:08:38;;;;;;;15.23;9.93;;;5.80;98.60;;;;;;5021182;28;20197;-73
2021/04/17 06:11:07;;;;;;;13.70;9.77;;;5.80;98.60;;;;;;5009156;28;20419;-72
2021/04/17 06:13:34;;;;;;;11.53;8.90;;;5.80;98.90;;;;;;4993760;28;20499;-73
2021/04/17 06:16:00;;;;;;;9.13;8.17;;;5.90;98.60;;;;;;5003223;28;20481;-72
2021/04/17 06:18:26;;;;;;;10.10;8.10;;;5.90;98.60;;;;;;5005259;28;20435;-73
2021/04/17 06:20:52;;;;;;;8.40;7.50;;;5.90;98.50;;;;;;5010537;28;20419;-72
2021/04/17 06:23:17;;;;;;;11.63;8.17;;;5.90;98.40;;;;;;5013313;28;20949;-72
2021/04/17 06:25:43;;;;;;;12.60;8.87;;;6.00;98.30;;;;;;5010828;28;20205;-72
2021/04/17 06:28:08;;;;;;;10.80;7.73;;;6.00;98.20;;;;;;5010450;28;20206;-73
2021/04/17 06:30:34;;;;;;;9.50;7.73;;;6.00;98.20;;;;;;4998611;28;20208;-73
2021/04/17 06:33:00;;;;;;;9.10;8.20;;;6.00;98.20;;;;;;5013093;28;20254;-73
2021/04/17 06:35:26;;;;;;;11.53;8.60;;;6.10;98.20;;;;;;4998693;28;20200;-73
2021/04/17 06:37:51;;;;;;;9.07;8.17;;;6.00;98.10;;;;;;5003207;28;20223;-73
2021/04/17 06:40:17;;;;;;;10.10;8.00;;;6.10;98.10;;;;;;5007692;28;20489;-73
2021/04/17 06:42:45;;;;;;;8.67;7.20;;;6.10;98.20;;;;;;5004320;28;20187;-73
2021/04/17 06:45:14;;;;;;;11.07;7.80;;;6.20;98.20;;;;;;5004038;28;20180;-72
2021/04/17 06:47:40;;;;;;;9.57;8.03;;;6.30;98.10;;;;;;5017164;28;20426;-72
2021/04/17 06:50:07;;;;;;;9.07;8.03;;;6.40;97.90;;;;;;5007881;28;20447;-72
2021/04/17 06:52:39;;;;;;;9.40;7.80;;;6.40;97.90;;;;;;5000948;28;20458;-72
2021/04/17 06:55:10;;;;;;;10.20;8.07;;;6.50;97.80;;;;;;4997098;28;20469;-73
2021/04/17 06:57:36;;;;;;;10.13;7.60;;;6.50;97.70;;;;;;5011710;28;20438;-73
2021/04/17 07:00:05;;;;;;;11.23;7.00;;;6.70;97.70;;;;;;5014926;28;20430;-73
2021/04/17 07:02:31;;;;;;;9.53;7.07;;;6.70;97.70;;;;;;5008274;28;20808;-73
2021/04/17 07:04:56;;;;;;;10.60;7.67;;;6.80;97.60;;;;;;5015826;28;20442;-74
2021/04/17 07:07:22;;;;;;;10.40;7.57;;;6.90;97.50;;;;;;5020488;28;20452;-72
2021/04/17 07:09:48;;;;;;;12.10;7.67;;;7.00;97.30;;;;;;5019937;28;20592;-72
2021/04/17 07:12:14;;;;;;;8.40;7.30;;;7.10;97.10;;;;;;5028990;28;20206;-73
2021/04/17 07:14:47;;;;;;;8.20;7.30;;;7.20;96.90;;;;;;5016551;28;20175;-73
2021/04/17 07:17:13;;;;;;;11.17;8.03;;;7.30;96.70;;;;;;5032332;28;20433;-73
2021/04/17 07:19:47;;;;;;;8.77;7.87;;;7.40;96.60;;;;;;5019536;28;20920;-73
2021/04/17 07:22:21;;;;;;;9.87;6.43;;;7.40;96.40;;;;;;5028779;28;20229;-73
2021/04/17 07:24:48;;;;;;;11.40;6.80;;;7.50;96.10;;;;;;5028509;28;20487;-74
2021/04/17 07:27:40;;;;;;;8.03;6.70;;;7.60;95.90;;;;;;5031284;28;20528;-74
2021/04/17 07:30:15;;;;;;;10.03;6.87;;;7.70;95.20;;;;;;5001428;28;20912;-73
2021/04/17 07:32:41;;;;;;;8.90;6.40;;;7.70;95.20;;;;;;4997795;28;20540;-73
2021/04/17 07:35:12;;;;;;;12.17;7.23;;;7.70;94.90;;;;;;4999662;28;20416;-74
2021/04/17 07:37:39;;;;;;;9.27;6.37;;;7.70;94.90;;;;;;5012700;28;20814;-73
2021/04/17 07:40:20;;;;;;;10.40;6.70;;;7.80;94.50;;;;;;5007745;28;20415;-72
2021/04/17 07:42:52;;;;;;;7.57;6.57;;;8.00;94.30;;;;;;5006481;28;20927;-71
2021/04/17 07:45:20;;;;;;;9.43;5.97;;;8.10;94.20;;;;;;4998223;28;20873;-72
2021/04/17 07:47:46;;;;;;;11.77;6.33;;;8.20;94.20;;;;;;4997777;28;20522;-72
2021/04/17 07:50:12;;;;;;;8.60;5.70;;;8.30;94.60;;;;;;5006874;28;20431;-72
2021/04/17 07:52:38;;;;;;;7.17;5.50;;;8.50;96.10;;;;;;4993320;28;20501;-73
2021/04/17 07:55:07;;;;;;;5.80;4.67;;;8.60;94.50;;;;;;5009397;28;20469;-72
2021/04/17 07:57:41;;;;;;;7.30;5.20;;;8.60;93.10;;;;;;5002565;28;20192;-72
2021/04/17 08:00:09;;;;;;;10.03;4.60;;;8.60;91.40;;;;;;5007328;28;20415;-72
2021/04/17 08:02:36;;;;;;;6.97;4.30;;;8.40;90.90;;;;;;5005284;28;20434;-72
2021/04/17 08:05:03;;;;;;;4.37;3.40;;;8.50;91.30;;;;;;5000189;28;20498;-73
2021/04/17 08:07:32;;;;;;;6.50;4.17;;;8.50;91.10;;;;;;5012041;28;20508;-74
2021/04/17 08:09:59;;;;;;;7.03;4.30;;;8.50;90.80;;;;;;5011318;28;20455;-72
2021/04/17 08:12:25;;;;;;;7.77;6.00;;;8.50;90.80;;;;;;5017698;28;20519;-72
2021/04/17 08:14:52;;;;;;;5.67;4.07;;;8.60;90.90;;;;;;5011906;28;20526;-73
2021/04/17 08:17:19;;;;;;;6.90;3.87;;;8.50;90.70;;;;;;5012999;28;20448;-72
2021/04/17 08:19:44;;;;;;;4.83;4.33;;;8.60;90.90;;;;;;5004055;28;20421;-73
2021/04/17 08:22:10;;;;;;;6.23;5.00;;;8.60;90.80;;;;;;5034291;28;20414;-73
2021/04/17 08:24:36;;;;;;;4.67;4.07;;;8.70;90.50;;;;;;5028689;28;20185;-72
2021/04/17 08:27:02;;;;;;;4.80;3.90;;;8.80;90.70;;;;;;5021966;28;20206;-72
2021/04/17 08:29:50;;;;;;;7.13;4.30;;;8.90;90.60;;;;;;5032723;28;20417;-72
2021/04/17 08:32:34;;;;;;;5.77;4.37;;;9.00;90.30;;;;;;5024222;28;20288;-72
2021/04/17 08:35:19;;;;;;;5.20;4.00;;;9.00;90.30;;;;;;5022564;28;20434;-72
2021/04/17 08:37:54;;;;;;;5.57;4.33;;;9.00;90.30;;;;;;5002751;28;20469;-73
2021/04/17 08:40:40;;;;;;;7.13;5.07;;;8.90;90.50;;;;;;5024097;28;20444;-72
2021/04/17 08:43:27;;;;;;;6.27;4.43;;;8.90;90.20;;;;;;5007013;28;20446;-73
2021/04/17 08:46:14;;;;;;;6.40;4.40;;;8.90;90.50;;;;;;5016342;28;21418;-73
2021/04/17 08:48:45;;;;;;;5.60;4.30;;;9.10;90.80;;;;;;5025004;28;20404;-73
2021/04/17 08:51:22;;;;;;;6.43;3.70;;;9.30;90.80;;;;;;5045339;28;20420;-73
2021/04/17 08:53:49;;;;;;;6.20;4.80;;;9.50;90.30;;;;;;5036072;28;20524;-73
2021/04/17 08:56:15;;;;;;;8.50;5.73;;;9.50;89.90;;;;;;5025886;28;20418;-73
2021/04/17 08:58:40;;;;;;;5.33;4.53;;;9.50;90.30;;;;;;5025610;28;20452;-72
2021/04/17 09:01:10;;;;;;;4.83;4.33;;;9.40;89.90;;;;;;5027243;28;20442;-72
2021/04/17 09:03:46;;;;;;;7.50;4.50;;;9.50;90.00;;;;;;5017048;28;20174;-72
2021/04/17 09:06:17;;;;;;;7.10;4.40;;;9.50;89.80;;;;;;5016770;28;20486;-72
2021/04/17 09:08:43;;;;;;;6.30;5.00;;;9.50;90.30;;;;;;5015600;28;20474;-73
2021/04/17 09:11:35;;;;;;;6.07;4.50;;;9.50;90.20;;;;;;5014947;28;20811;-72
2021/04/17 09:14:01;;;;;;;9.47;5.33;;;9.50;90.20;;;;;;5010541;28;20185;-73
2021/04/17 09:16:38;;;;;;;8.07;5.10;;;9.40;90.50;;;;;;5002405;28;20760;-72
2021/04/17 09:19:03;;;;;;;8.57;5.57;;;9.40;90.20;;;;;;5010413;28;20411;-72
2021/04/17 09:21:29;;;;;;;6.40;4.77;;;9.40;90.20;;;;;;5005882;28;20438;-73
2021/04/17 09:23:54;;;;;;;8.30;5.33;;;9.40;90.30;;;;;;5003793;28;20200;-73
2021/04/17 09:26:33;;;;;;;5.27;4.63;;;9.50;90.90;;;;;;4995264;28;20169;-72
2021/04/17 09:29:05;;;;;;;9.60;5.50;;;9.50;91.10;;;;;;4997520;28;20185;-72
2021/04/17 09:31:35;;;;;;;6.40;5.00;;;9.60;90.90;;;;;;5008220;28;20490;-74
2021/04/17 09:34:06;;;;;;;7.53;4.77;;;9.70;90.30;;;;;;5014745;28;20453;-73
2021/04/17 09:36:32;;;;;;;6.07;4.80;;;9.90;89.90;;;;;;5014536;28;20939;-73
2021/04/17 09:38:59;;;;;;;5.83;4.10;;;10.00;88.20;;;;;;5014287;28;20439;-73
2021/04/17 09:41:45;;;;;;;5.20;4.57;;;10.20;87.50;;;;;;5011073;28;20421;-73
2021/04/17 09:44:12;;;;;;;5.50;4.10;;;10.40;86.70;;;;;;5001190;28;20792;-73
2021/04/17 09:46:38;;;;;;;7.40;4.20;;;10.60;86.20;;;;;;5004946;28;20824;-73
2021/04/17 09:49:03;;;;;;;5.03;3.70;;;10.80;85.90;;;;;;5003050;28;20423;-74
2021/04/17 09:51:29;;;;;;;6.00;3.53;;;11.00;84.70;;;;;;5014512;28;20264;-73
2021/04/17 09:54:04;;;;;;;10.60;3.83;;;11.00;82.60;;;;;;5008811;28;20246;-72
2021/04/17 09:56:31;;;;;;;10.80;4.53;;;10.90;81.90;;;;;;5005080;28;20850;-73
2021/04/17 09:58:58;;;;;;;5.33;4.00;;;11.10;84.90;;;;;;5009760;28;20803;-73
2021/04/17 10:01:24;;;;;;;5.13;3.87;;;11.20;82.80;;;;;;5024395;28;21141;-72
2021/04/17 10:03:51;;;;;;;4.83;3.67;;;11.30;82.10;;;;;;5013415;28;20525;-72
2021/04/17 10:06:29;;;;;;;6.83;3.60;;;11.50;81.70;;;;;;5006548;28;20263;-73
2021/04/17 10:09:16;;;;;;;7.00;3.60;;;11.40;79.30;;;;;;5013107;28;20548;-73
2021/04/17 10:11:44;;;;;;;4.10;3.17;;;11.40;80.00;;;;;;5013295;28;20541;-73
2021/04/17 10:14:12;;;;;;;5.70;3.53;;;11.50;80.20;;;;;;5018273;28;20433;-73
2021/04/17 10:16:41;;;;;;;5.10;3.77;;;11.40;77.50;;;;;;5005755;28;20534;-73
2021/04/17 10:19:12;;;;;;;4.23;3.83;;;11.30;76.90;;;;;;5020511;28;20498;-73
2021/04/17 10:21:38;;;;;;;4.53;2.77;;;11.20;77.60;;;;;;5013347;28;20427;-73
2021/04/17 10:24:14;;;;;;;4.83;3.17;;;11.20;77.30;;;;;;5014287;28;20423;-72
2021/04/17 10:27:10;;;;;;;6.90;3.63;;;11.20;77.70;;;;;;4998820;28;20438;-73
2021/04/17 10:29:53;;;;;;;3.27;2.97;;;11.30;76.50;;;;;;5006903;28;20445;-74
2021/04/17 10:32:31;;;;;;;6.47;3.10;;;11.60;76.90;;;;;;5009987;28;20465;-74
2021/04/17 10:35:02;;;;;;;4.63;3.53;;;11.70;75.90;;;;;;5008367;28;20445;-74
2021/04/17 10:37:28;;;;;;;5.43;3.73;;;11.90;75.70;;;;;;5011151;28;20453;-74
2021/04/17 10:40:05;;;;;;;5.37;3.60;;;12.00;74.80;;;;;;5014106;28;20398;-74
2021/04/17 10:42:53;;;;;;;3.70;3.30;;;12.10;74.90;;;;;;5016559;28;20200;-73
2021/04/17 10:45:41;;;;;;;5.23;3.40;;;12.40;74.60;;;;;;5000341;28;20450;-72
2021/04/17 10:48:14;;;;;;;4.40;3.63;;;12.50;73.70;;;;;;5012156;28;20995;-73
2021/04/17 10:50:43;;;;;;;4.67;4.23;;;12.50;72.90;;;;;;5013017;28;20735;-73
2021/04/17 10:53:14;;;;;;;6.77;3.87;;;12.30;73.60;;;;;;5014169;28;20537;-74
2021/04/17 10:55:45;;;;;;;7.93;4.13;;;12.40;74.40;;;;;;5016024;28;20413;-73
2021/04/17 10:58:30;;;;;;;5.70;4.70;;;12.30;73.40;;;;;;5012504;28;20441;-74
2021/04/17 11:01:07;;;;;;;11.20;4.73;;;12.10;73.70;;;;;;4993327;28;20494;-73
2021/04/17 11:03:46;;;;;;;6.80;5.20;;;12.00;74.30;;;;;;4996603;28;20812;-73
2021/04/17 11:06:14;;;;;;;8.30;4.73;;;12.00;75.50;;;;;;5008565;28;20414;-74
2021/04/17 11:08:41;;;;;;;5.77;4.20;;;12.10;75.60;;;;;;5020878;28;20942;-74
2021/04/17 11:11:12;;;;;;;7.80;4.53;;;12.00;75.10;;;;;;5023086;28;20423;-73
2021/04/17 11:13:41;;;;;;;8.83;4.90;;;12.00;75.30;;;;;;5021612;28;20888;-74
2021/04/17 11:16:07;;;;;;;4.40;3.87;;;12.20;75.90;;;;;;5037864;28;20460;-73
2021/04/17 11:18:39;;;;;;;7.10;4.73;;;12.30;75.60;;;;;;5027110;28;20477;-72
2021/04/17 11:21:06;;;;;;;6.30;4.37;;;12.40;74.90;;;;;;5020182;28;20171;-73
2021/04/17 11:23:39;;;;;;;4.10;3.67;;;12.40;75.40;;;;;;5020083;28;20513;-73
2021/04/17 11:26:08;;;;;;;7.77;4.80;;;12.40;75.40;;;;;;5016694;28;20491;-72
2021/04/17 11:28:34;;;;;;;5.60;4.33;;;12.40;75.40;;;;;;5016824;28;20438;-73
2021/04/17 11:31:00;;;;;;;5.90;4.60;;;12.30;75.40;;;;;;5017848;28;20880;-74
2021/04/17 11:33:26;;;;;;;6.17;4.50;;;12.50;76.00;;;;;;5018301;28;20528;-72
2021/04/17 11:35:52;;;;;;;6.40;4.13;;;12.40;73.50;;;;;;5025837;28;20902;-73
2021/04/17 11:38:18;;;;;;;7.53;4.80;;;12.40;73.30;;;;;;5023340;28;20450;-73
2021/04/17 11:40:45;;;;;;;6.30;4.70;;;12.50;73.80;;;;;;5022353;28;20915;-73
2021/04/17 11:43:11;;;;;;;6.50;4.77;;;12.40;72.80;;;;;;5018995;28;20958;-73
2021/04/17 11:45:37;;;;;;;5.93;4.40;;;12.20;73.30;;;;;;5020399;28;20410;-73
2021/04/17 11:48:04;;;;;;;6.63;4.77;;;12.10;74.00;;;;;;5024179;28;20207;-73
2021/04/17 11:50:30;;;;;;;5.00;4.50;;;12.30;74.60;;;;;;5028536;28;20235;-74
2021/04/17 11:52:56;;;;;;;5.17;4.33;;;12.30;74.70;;;;;;5016410;28;20890;-72
2021/04/17 11:55:23;;;;;;;12.23;4.93;;;12.40;75.40;;;;;;5017591;28;20415;-73
2021/04/17 11:57:48;;;;;;;7.63;5.33;;;12.60;75.20;;;;;;5016281;28;20202;-72
2021/04/17 12:00:14;;;;;;;6.47;4.27;;;12.50;73.90;;;;;;5015600;28;20415;-73
2021/04/17 12:02:40;;;;;;;6.00;3.97;;;12.60;74.30;;;;;;5027417;28;20168;-73
2021/04/17 12:05:06;;;;;;;6.10;3.80;;;12.70;74.20;;;;;;5031695;28;20471;-73
2021/04/17 12:07:32;;;;;;;6.87;4.00;;;12.40;73.70;;;;;;5010314;28;20212;-73
2021/04/17 12:09:58;;;;;;;4.93;4.13;;;12.30;73.60;;;;;;4998616;28;20427;-73
2021/04/17 12:12:24;;;;;;;6.13;4.07;;;12.20;73.40;;;;;;5012477;28;20214;-73
2021/04/17 12:14:50;;;;;;;3.50;3.20;;;12.10;72.10;;;;;;5021032;28;20187;-73
2021/04/17 12:17:16;;;;;;;4.10;3.10;;;12.10;68.60;;;;;;5035351;28;21002;-73
2021/04/17 12:19:41;;;;;;;5.23;3.37;;;12.10;64.70;;;;;;5036446;28;20402;-73
2021/04/17 12:22:07;;;;;;;3.37;3.07;;;12.00;64.60;;;;;;5027780;28;20232;-73
2021/04/17 12:24:32;;;;;;;5.47;3.00;;;12.20;62.80;;;;;;5027637;28;20662;-74
2021/04/17 12:26:58;;;;;;;3.77;2.77;;;12.40;62.20;;;;;;5036911;28;20195;-73
2021/04/17 12:29:23;;;;;;;3.27;2.33;;;12.70;57.60;;;;;;5036231;28;20175;-73
2021/04/17 12:31:49;;;;;;;3.60;2.63;;;12.70;54.70;;;;;;5035401;28;20191;-75
2021/04/17 12:34:14;;;;;;;5.03;2.97;;;12.60;53.90;;;;;;5016368;28;20175;-73
2021/04/17 12:36:40;;;;;;;5.43;3.23;;;12.60;55.20;;;;;;5016021;28;20692;-74
2021/04/17 12:39:06;;;;;;;6.17;2.90;;;12.80;55.90;;;;;;5014679;28;20191;-73
2021/04/17 12:41:35;;;;;;;4.97;4.57;;;12.80;55.90;;;;;;5015189;28;20284;-73
2021/04/17 12:44:01;;;;;;;4.00;2.97;;;12.80;56.50;;;;;;5013903;28;20184;-73
2021/04/17 12:46:26;;;;;;;5.10;3.77;;;12.60;58.30;;;;;;5015674;28;20410;-73
2021/04/17 12:48:52;;;;;;;3.40;2.90;;;12.50;59.10;;;;;;5015622;28;20409;-73
2021/04/17 12:51:17;;;;;;;4.30;3.67;;;12.40;59.40;;;;;;5013995;28;20521;-72
2021/04/17 12:53:43;;;;;;;5.00;3.60;;;12.30;59.40;;;;;;5014507;28;20204;-73
2021/04/17 12:56:09;;;;;;;5.43;3.67;;;12.30;60.60;;;;;;5013286;28;20186;-73
2021/04/17 12:58:38;;;;;;;8.27;4.10;;;12.20;60.20;;;;;;5015075;28;20411;-72